Time;durP1;ratioP1;P1;durP2;ratioP2;P2;SDS_P1;SDS_P2;PMS_P1;PMS_P2;Temp;Humidity;BMP_temperature;BMP_pressure;BME280_temperature;BME280_humidity;BME280_pressure;Samples;Min_cycle;Max_cycle;Signal;HPM_P1;HPM_P2
2022/11/25 00:00:02;;;;;;;17.02;11.23;;;;;;;8.51;87.13;101001.19;5050100;28;20040;-66
2022/11/25 00:02:28;;;;;;;22.08;11.18;;;;;;;8.17;87.52;101006.81;5038791;28;20515;-66
2022/11/25 00:04:55;;;;;;;23.55;11.57;;;;;;;8.38;86.77;101005.19;5048191;28;20063;-66
2022/11/25 00:07:21;;;;;;;23.27;10.70;;;;;;;8.11;88.03;100995.75;5077445;28;20052;-66
2022/11/25 00:09:49;;;;;;;19.00;11.18;;;;;;;7.87;88.56;101002.72;5039933;28;20044;-66
2022/11/25 00:12:15;;;;;;;18.63;11.15;;;;;;;7.65;89.48;101007.84;5048021;28;20040;-66
2022/11/25 00:14:42;;;;;;;15.65;10.88;;;;;;;7.88;88.64;100995.75;5048774;28;20063;-66
2022/11/25 00:17:08;;;;;;;18.92;9.95;;;;;;;7.93;87.26;100994.69;5038415;28;20520;-66
2022/11/25 00:19:34;;;;;;;15.27;8.73;;;;;;;7.54;85.83;101007.38;5048819;28;20052;-66
2022/11/25 00:22:01;;;;;;;18.27;9.80;;;;;;;7.61;85.88;101008.03;5048419;28;20048;-66
2022/11/25 00:24:27;;;;;;;15.35;9.13;;;;;;;7.58;84.37;101001.16;5039811;28;20053;-66
2022/11/25 00:26:55;;;;;;;31.45;7.97;;;;;;;7.67;82.98;100998.22;5049226;28;20512;-66
2022/11/25 00:29:22;;;;;;;12.38;8.27;;;;;;;7.33;83.37;101005.53;5047693;28;20041;-66
2022/11/25 00:31:48;;;;;;;23.08;8.07;;;;;;;7.61;82.16;101000.22;5038532;28;20040;-67
2022/11/25 00:34:15;;;;;;;12.88;7.60;;;;;;;7.01;82.46;101000.53;5048406;28;20048;-67
2022/11/25 00:36:41;;;;;;;17.73;8.95;;;;;;;6.68;84.77;100992.06;5047707;28;20474;-67
2022/11/25 00:39:11;;;;;;;11.70;8.63;;;;;;;6.53;86.25;100988.19;5053641;28;20054;-67
2022/11/25 00:44:35;;;;;;;12.60;7.97;;;;;;;6.54;85.99;100986.44;5038283;28;20448;-67
2022/11/25 00:47:02;;;;;;;48.00;9.00;;;;;;;6.34;84.41;100982.69;5047682;28;20045;-67
2022/11/25 00:49:28;;;;;;;106.60;10.25;;;;;;;5.92;85.40;100991.75;5048027;28;20045;-67
2022/11/25 00:51:55;;;;;;;15.27;8.02;;;;;;;5.94;87.03;100994.31;5038237;28;20507;-67
2022/11/25 00:54:21;;;;;;;11.90;7.55;;;;;;;5.88;84.78;100990.13;5047548;28;20055;-67
2022/11/25 00:56:48;;;;;;;67.75;8.63;;;;;;;5.74;84.75;100992.22;5048361;28;20047;-67
2022/11/25 00:59:14;;;;;;;14.10;8.00;;;;;;;5.85;84.00;100995.38;5037857;28;20083;-67
2022/11/25 01:01:42;;;;;;;11.65;7.43;;;;;;;5.52;84.15;101001.50;5047874;28;20041;-67
2022/11/25 01:04:09;;;;;;;12.05;7.75;;;;;;;5.53;84.55;101001.47;5047968;28;20492;-66
2022/11/25 01:06:37;;;;;;;11.02;7.80;;;;;;;5.24;85.86;101001.41;5038102;28;20049;-66
2022/11/25 01:09:04;;;;;;;12.80;7.97;;;;;;;5.11;86.45;101006.03;5047954;28;20409;-66
2022/11/25 01:11:31;;;;;;;16.88;8.07;;;;;;;5.22;85.20;101008.38;5048861;28;20542;-66
2022/11/25 01:13:57;;;;;;;21.27;8.23;;;;;;;5.26;84.57;101004.78;5039305;28;20048;-66
2022/11/25 01:16:25;;;;;;;13.23;7.78;;;;;;;5.09;84.87;100996.59;5056064;28;20852;-66
2022/11/25 01:18:52;;;;;;;12.77;7.70;;;;;;;5.04;85.02;101001.03;5059023;28;20052;-66
2022/11/25 01:21:21;;;;;;;12.65;7.78;;;;;;;5.07;85.37;100993.16;5036600;28;20059;-67
2022/11/25 01:23:48;;;;;;;13.65;8.15;;;;;;;5.23;84.27;101003.13;5047695;28;20048;-66
2022/11/25 01:26:18;;;;;;;13.02;7.93;;;;;;;5.43;83.70;101001.78;5076420;28;20046;-66
2022/11/25 01:28:44;;;;;;;12.32;7.03;;;;;;;5.07;80.88;101001.81;5038149;28;20515;-66
2022/11/25 01:31:13;;;;;;;10.98;6.72;;;;;;;4.89;82.81;101003.13;5047719;28;20048;-66
2022/11/25 01:33:40;;;;;;;11.88;7.18;;;;;;;5.04;82.97;100999.28;5047578;28;20045;-66
2022/11/25 01:36:11;;;;;;;12.00;7.00;;;;;;;4.89;83.36;100995.31;5056697;28;20421;-67
2022/11/25 01:38:37;;;;;;;13.93;7.68;;;;;;;4.80;84.17;100995.53;5051413;28;20536;-67
2022/11/25 01:41:05;;;;;;;12.55;8.18;;;;;;;4.66;83.71;101001.94;5036921;28;20469;-66
2022/11/25 01:43:32;;;;;;;15.65;8.35;;;;;;;4.68;84.32;101003.63;5046313;28;20052;-66
2022/11/25 01:46:07;;;;;;;21.15;8.45;;;;;;;4.61;83.00;100998.63;5046745;28;20484;-66
2022/11/25 01:48:39;;;;;;;14.07;7.80;;;;;;;4.67;81.45;100996.72;5042860;28;20420;-66
2022/11/25 01:51:10;;;;;;;13.63;7.47;;;;;;;4.51;81.33;100995.38;5045989;28;20067;-66
2022/11/25 01:53:37;;;;;;;14.43;7.38;;;;;;;4.58;82.54;100991.72;5062350;28;20127;-66
2022/11/25 01:56:04;;;;;;;13.00;7.55;;;;;;;4.65;81.16;101002.84;5038234;28;20116;-66
2022/11/25 01:58:35;;;;;;;10.82;6.97;;;;;;;4.54;80.82;101000.50;5046274;28;20079;-66
2022/11/25 02:01:02;;;;;;;14.13;7.63;;;;;;;4.42;81.43;100998.19;5036716;28;20040;-66
2022/11/25 02:03:33;;;;;;;18.20;8.05;;;;;;;4.22;82.78;100995.16;5047334;28;20532;-66
2022/11/25 02:06:05;;;;;;;14.48;8.10;;;;;;;4.30;83.36;100999.31;5047345;28;20083;-67
2022/11/25 02:08:33;;;;;;;20.42;8.65;;;;;;;4.23;83.30;100994.28;5036545;28;20044;-66
2022/11/25 02:11:03;;;;;;;17.05;7.47;;;;;;;4.28;82.21;101000.22;5045916;28;20132;-66
2022/11/25 02:13:31;;;;;;;15.63;7.68;;;;;;;4.21;82.37;101001.25;5047759;28;20044;-67
2022/11/25 02:15:58;;;;;;;12.50;6.63;;;;;;;4.24;82.07;100996.00;5037997;28;20079;-66
2022/11/25 02:18:26;;;;;;;16.33;7.78;;;;;;;4.32;81.32;100999.28;5046448;28;20497;-67
2022/11/25 02:20:53;;;;;;;11.27;7.15;;;;;;;4.30;80.00;101004.50;5046649;28;20048;-67
2022/11/25 02:23:28;;;;;;;16.50;6.90;;;;;;;4.38;79.63;101000.00;5037099;28;20131;-66
2022/11/25 02:25:56;;;;;;;9.27;6.53;;;;;;;4.33;79.71;101004.41;5046250;28;20576;-66
2022/11/25 02:28:24;;;;;;;13.65;7.22;;;;;;;4.22;80.24;101000.34;5036793;28;20546;-67
2022/11/25 02:30:52;;;;;;;13.55;6.95;;;;;;;4.06;81.32;101004.19;5047000;28;20040;-67
2022/11/25 02:33:20;;;;;;;11.15;6.63;;;;;;;4.18;80.49;100996.09;5039211;28;20453;-67
2022/11/25 02:35:48;;;;;;;13.00;7.47;;;;;;;3.87;82.13;101004.56;5073631;28;20043;-67
2022/11/25 02:38:18;;;;;;;11.45;6.82;;;;;;;3.81;83.00;100996.00;5057811;28;20079;-66
2022/11/25 02:40:48;;;;;;;13.85;7.10;;;;;;;3.78;83.50;100994.34;5064685;28;20094;-66
2022/11/25 02:43:16;;;;;;;11.20;6.82;;;;;;;3.88;82.36;100989.84;5037638;28;20467;-66
2022/11/25 02:45:55;;;;;;;13.32;6.78;;;;;;;3.73;82.98;100990.97;5044876;28;20048;-66
2022/11/25 02:48:21;;;;;;;12.52;6.57;;;;;;;3.80;82.62;100995.19;5018478;28;20460;-66
2022/11/25 02:50:48;;;;;;;11.73;6.57;;;;;;;3.68;82.63;100998.00;5027753;28;20047;-67
2022/11/25 02:53:15;;;;;;;11.70;7.20;;;;;;;3.51;83.78;100997.47;5076304;28;20047;-66
2022/11/25 02:55:42;;;;;;;13.93;7.63;;;;;;;3.70;83.64;100996.22;5040106;28;20048;-67
2022/11/25 02:58:09;;;;;;;10.75;6.90;;;;;;;3.75;83.77;100991.81;5048031;28;20045;-66
2022/11/25 03:00:36;;;;;;;12.10;6.22;;;;;;;3.84;83.41;100988.19;5055832;28;20051;-66
2022/11/25 03:03:03;;;;;;;16.25;7.07;;;;;;;3.69;82.87;100994.53;5059974;28;20052;-66
2022/11/25 03:05:29;;;;;;;16.45;6.50;;;;;;;3.47;82.05;100994.97;5074471;28;20036;-66
2022/11/25 03:07:56;;;;;;;13.27;7.13;;;;;;;3.48;82.96;100996.66;5055931;28;20044;-67
2022/11/25 03:10:23;;;;;;;11.68;6.50;;;;;;;3.55;83.74;100991.34;5039949;28;20049;-66
2022/11/25 03:12:49;;;;;;;9.65;6.43;;;;;;;3.49;83.07;101006.16;5038043;28;20057;-66
2022/11/25 03:15:16;;;;;;;12.43;6.10;;;;;;;3.21;81.79;100998.03;5030288;28;20044;-67
2022/11/25 03:17:44;;;;;;;10.55;6.30;;;;;;;3.47;81.84;101007.94;5020951;28;20037;-66
2022/11/25 03:20:13;;;;;;;10.85;6.40;;;;;;;3.43;82.82;101001.97;5029881;28;20056;-66
2022/11/25 03:22:40;;;;;;;22.02;7.63;;;;;;;3.49;84.99;101001.84;5030116;28;20044;-67
2022/11/25 03:25:08;;;;;;;31.30;8.55;;;;;;;3.29;85.24;101003.91;5021031;28;20060;-67
2022/11/25 03:27:34;;;;;;;20.35;8.35;;;;;;;3.17;88.85;100997.25;5039292;28;20045;-67
2022/11/25 03:30:01;;;;;;;29.52;8.15;;;;;;;3.16;87.90;100997.25;5027280;28;20045;-67
2022/11/25 03:32:28;;;;;;;73.05;10.20;;;;;;;3.15;91.37;100995.53;5029542;28;20557;-67
2022/11/25 03:34:56;;;;;;;18.83;8.20;;;;;;;3.61;90.77;100980.88;5044679;27;20051;-67
2022/11/25 03:37:22;;;;;;;17.05;8.50;;;;;;;3.79;91.29;100980.50;5029773;28;20045;-67
2022/11/25 03:39:48;;;;;;;19.02;8.05;;;;;;;3.93;88.50;100973.28;5019806;28;20671;-66
2022/11/25 03:42:15;;;;;;;16.63;8.10;;;;;;;4.11;87.86;100989.34;5030366;28;20048;-66
2022/11/25 03:44:41;;;;;;;19.65;8.85;;;;;;;3.83;86.67;100984.75;5028544;28;20053;-66
2022/11/25 03:47:08;;;;;;;28.45;10.75;;;;;;;3.82;92.81;100996.00;5020059;28;20045;-67
2022/11/25 03:49:34;;;;;;;18.13;9.88;;;;;;;3.82;92.00;100977.84;5030326;28;20080;-67
2022/11/25 03:52:02;;;;;;;190.60;13.57;;;;;;;4.07;89.44;100975.56;5029511;28;20045;-67
2022/11/25 03:54:29;;;;;;;197.10;14.07;;;;;;;3.75;91.71;100980.59;5021275;28;20556;-67
2022/11/25 03:56:55;;;;;;;71.03;9.35;;;;;;;3.83;94.86;100978.69;5035940;28;20492;-67
2022/11/25 03:59:22;;;;;;;22.80;9.48;;;;;;;3.91;92.81;100987.19;5045160;28;20558;-67
2022/11/25 04:01:48;;;;;;;22.65;9.20;;;;;;;4.06;92.49;100986.00;5032643;28;20051;-67
2022/11/25 04:04:15;;;;;;;28.48;10.43;;;;;;;4.18;93.26;100977.94;5041185;28;20048;-67
2022/11/25 04:06:41;;;;;;;28.13;10.18;;;;;;;3.90;93.36;100983.72;5048547;28;20047;-67
2022/11/25 04:09:10;;;;;;;26.60;10.60;;;;;;;3.93;95.27;100988.84;5039274;28;20051;-67
2022/11/25 04:14:21;;;;;;;29.77;10.75;;;;;;;3.84;98.38;100986.44;5042183;28;20121;-67
2022/11/25 04:16:48;;;;;;;25.52;10.85;;;;;;;4.19;96.46;100977.91;5039006;28;20049;-67
2022/11/25 04:19:14;;;;;;;42.25;10.18;;;;;;;4.10;96.26;100974.69;5038575;28;20493;-67
2022/11/25 04:21:41;;;;;;;23.83;10.10;;;;;;;4.13;94.09;100965.09;5040845;28;20049;-67
2022/11/25 04:24:09;;;;;;;21.25;9.63;;;;;;;4.26;93.21;100968.25;5028501;28;20053;-67
2022/11/25 04:26:35;;;;;;;26.45;10.35;;;;;;;3.77;95.49;100974.47;5035928;28;20083;-67
2022/11/25 04:29:02;;;;;;;29.80;9.13;;;;;;;3.85;96.36;100972.59;5029340;28;20457;-67
2022/11/25 04:31:28;;;;;;;21.05;9.57;;;;;;;4.25;94.15;100970.00;5036367;28;20060;-67
2022/11/25 04:33:55;;;;;;;36.15;9.75;;;;;;;4.61;91.58;100983.91;5047581;28;20044;-67
2022/11/25 04:36:21;;;;;;;31.98;10.95;;;;;;;4.19;93.59;100984.84;5048575;28;20044;-67
2022/11/25 04:38:48;;;;;;;31.52;10.93;;;;;;;3.97;99.90;100989.63;5047879;28;20627;-67
2022/11/25 04:41:16;;;;;;;27.92;10.50;;;;;;;4.26;96.47;100992.47;5051774;28;20866;-67
2022/11/25 04:43:42;;;;;;;29.92;11.20;;;;;;;4.48;97.38;100984.19;5048607;28;20047;-67
2022/11/25 04:46:12;;;;;;;28.05;10.63;;;;;;;4.31;97.41;100993.22;5038248;28;20553;-67
2022/11/25 04:48:38;;;;;;;31.17;10.82;;;;;;;4.75;94.04;100986.16;5047474;28;20049;-67
2022/11/25 04:51:05;;;;;;;56.58;9.93;;;;;;;4.98;92.05;100991.66;5056179;28;20043;-68
2022/11/25 04:53:31;;;;;;;24.25;9.05;;;;;;;4.85;90.31;100983.28;5045452;28;20037;-67
2022/11/25 04:55:57;;;;;;;58.42;9.63;;;;;;;4.70;88.37;100977.59;5047766;28;20060;-67
2022/11/25 05:01:09;;;;;;;28.10;8.80;;;;;;;4.47;89.71;100992.91;5047589;28;20043;-68
2022/11/25 05:03:36;;;;;;;21.38;8.65;;;;;;;4.31;89.40;100990.63;5048158;28;20056;-68
2022/11/25 05:06:05;;;;;;;86.10;10.13;;;;;;;4.37;89.70;100995.69;5038013;28;20040;-68
2022/11/25 05:08:32;;;;;;;17.42;8.25;;;;;;;4.30;88.85;100993.25;5047029;28;20052;-67
2022/11/25 05:10:58;;;;;;;21.63;8.20;;;;;;;4.11;91.06;101000.56;5047364;28;20041;-68
2022/11/25 05:13:27;;;;;;;28.92;8.85;;;;;;;4.04;96.39;100996.41;5038064;28;20511;-68
2022/11/25 05:15:54;;;;;;;26.67;8.82;;;;;;;4.01;93.74;100991.28;5046661;28;20048;-67
2022/11/25 05:18:20;;;;;;;15.60;7.00;;;;;;;4.30;92.97;100990.66;5048863;28;20059;-67
2022/11/25 05:20:47;;;;;;;20.92;8.25;;;;;;;4.21;94.78;100988.28;5037989;28;20048;-68
2022/11/25 05:23:13;;;;;;;19.73;8.13;;;;;;;4.21;93.10;100989.09;5047533;28;20079;-68
2022/11/25 05:25:40;;;;;;;26.70;8.68;;;;;;;4.39;92.65;100983.53;5048189;28;20044;-68
2022/11/25 05:28:06;;;;;;;19.10;7.90;;;;;;;4.44;91.93;100988.59;5037794;28;20044;-68
2022/11/25 05:30:34;;;;;;;21.75;7.18;;;;;;;4.60;90.54;100987.38;5046826;28;20056;-67
2022/11/25 05:33:00;;;;;;;25.48;7.95;;;;;;;4.39;92.89;100987.88;5041220;28;20662;-68
2022/11/25 05:35:27;;;;;;;38.22;8.20;;;;;;;4.48;92.89;100990.25;5037668;28;20500;-68
2022/11/25 05:37:53;;;;;;;19.05;7.35;;;;;;;4.41;88.95;100986.94;5046094;28;20040;-71
2022/11/25 05:40:20;;;;;;;21.25;6.70;;;;;;;4.69;88.83;100989.75;5047613;28;20503;-68
2022/11/25 05:42:46;;;;;;;28.25;7.13;;;;;;;4.66;89.38;100992.41;5038332;28;20041;-68
2022/11/25 05:45:13;;;;;;;21.58;7.95;;;;;;;4.73;89.44;100985.34;5047287;28;20055;-68
2022/11/25 05:47:40;;;;;;;20.40;7.30;;;;;;;4.77;89.15;100992.16;5047968;28;20049;-68
2022/11/25 05:50:08;;;;;;;25.70;6.97;;;;;;;5.00;88.62;100994.19;5037412;28;20519;-68
2022/11/25 05:52:34;;;;;;;33.10;7.50;;;;;;;5.30;86.34;100993.44;5046563;28;20052;-68
2022/11/25 05:55:01;;;;;;;17.85;6.43;;;;;;;5.19;86.47;100993.72;5047521;28;20044;-68
2022/11/25 05:57:27;;;;;;;18.33;7.13;;;;;;;4.87;86.05;100994.53;5038061;28;20044;-68
2022/11/25 05:59:54;;;;;;;21.42;7.40;;;;;;;4.50;90.71;100996.28;5045976;28;20041;-67
2022/11/25 06:02:20;;;;;;;20.63;8.63;;;;;;;4.61;91.48;100996.88;5047201;28;20044;-68
2022/11/25 06:04:48;;;;;;;22.65;7.78;;;;;;;4.79;89.96;101001.66;5036800;28;20048;-68
2022/11/25 06:07:15;;;;;;;22.08;7.20;;;;;;;4.39;87.77;100996.53;5070625;28;20039;-67
2022/11/25 06:09:44;;;;;;;16.35;7.75;;;;;;;4.51;88.09;100997.13;5054097;28;20052;-68
2022/11/25 06:12:10;;;;;;;12.50;6.20;;;;;;;4.52;87.95;100997.06;5041099;28;20045;-68
2022/11/25 06:14:37;;;;;;;14.40;6.47;;;;;;;4.49;87.74;100996.28;5074972;28;20064;-68
2022/11/25 06:17:04;;;;;;;13.32;6.35;;;;;;;4.44;90.55;100996.38;5061456;28;20044;-68
2022/11/25 06:19:30;;;;;;;20.33;6.65;;;;;;;4.17;90.97;100991.81;5054605;28;20052;-68
2022/11/25 06:21:58;;;;;;;24.52;7.10;;;;;;;4.37;90.81;101000.88;5047148;28;20052;-68
2022/11/25 06:24:25;;;;;;;14.75;6.15;;;;;;;4.66;88.51;100997.59;5046859;28;20048;-67
2022/11/25 06:26:51;;;;;;;19.27;6.47;;;;;;;4.49;88.98;100994.56;5037603;28;20052;-67
2022/11/25 06:29:18;;;;;;;22.05;6.32;;;;;;;4.33;89.62;100998.38;5045809;28;20055;-68
2022/11/25 06:31:44;;;;;;;14.52;6.13;;;;;;;4.04;89.44;101005.94;5042521;28;20488;-68
2022/11/25 06:34:10;;;;;;;14.95;6.50;;;;;;;4.30;91.54;100998.44;5031691;28;20051;-68
2022/11/25 06:36:38;;;;;;;15.73;6.18;;;;;;;4.39;90.16;100998.25;5049484;28;20052;-68
2022/11/25 06:39:06;;;;;;;25.63;6.68;;;;;;;4.42;90.90;100998.19;5050147;28;20488;-68
2022/11/25 06:41:33;;;;;;;23.60;6.95;;;;;;;4.27;89.37;101001.97;5039583;28;20048;-68
2022/11/25 06:43:59;;;;;;;19.60;7.22;;;;;;;4.33;91.72;100995.78;5049379;28;20040;-68
2022/11/25 06:46:25;;;;;;;23.75;7.45;;;;;;;4.46;90.02;101004.16;5047621;28;20059;-68
2022/11/25 06:48:52;;;;;;;18.30;7.40;;;;;;;4.93;88.44;101011.69;5028073;28;20436;-68
2022/11/25 06:51:19;;;;;;;17.33;6.75;;;;;;;4.83;86.79;101011.06;5045779;28;20044;-68
2022/11/25 06:53:45;;;;;;;16.25;6.20;;;;;;;4.62;86.86;101005.53;5049398;28;20074;-68
2022/11/25 06:56:16;;;;;;;17.10;6.70;;;;;;;4.92;86.71;101009.97;5039627;28;20432;-68
2022/11/25 06:58:44;;;;;;;14.63;6.03;;;;;;;4.87;84.62;101006.66;5048595;28;20056;-68
2022/11/25 07:01:13;;;;;;;20.65;6.25;;;;;;;4.78;84.16;101015.50;5047877;28;20511;-68
2022/11/25 07:03:40;;;;;;;55.75;7.22;;;;;;;4.52;84.09;101010.06;5039323;28;20072;-68
2022/11/25 07:06:07;;;;;;;18.08;6.53;;;;;;;4.12;84.67;101010.09;5038967;28;20493;-68
2022/11/25 07:08:34;;;;;;;19.00;6.95;;;;;;;3.78;87.15;101014.22;5049302;28;20048;-69
2022/11/25 07:11:04;;;;;;;22.70;7.28;;;;;;;3.79;90.03;101019.41;5038836;28;20051;-68
2022/11/25 07:13:32;;;;;;;20.30;6.90;;;;;;;4.24;88.05;101022.81;5049310;28;20083;-68
2022/11/25 07:16:02;;;;;;;21.83;7.20;;;;;;;4.22;88.76;101024.56;5049855;28;20056;-68
2022/11/25 07:18:33;;;;;;;18.23;7.43;;;;;;;4.12;88.34;101030.84;5050709;28;20048;-68
2022/11/25 07:21:05;;;;;;;23.15;7.05;;;;;;;3.91;86.94;101023.50;5048648;28;20419;-68
2022/11/25 07:23:32;;;;;;;;;;;;;;;3.26;92.40;101029.88;5040370;28;20721;-68
2022/11/25 07:26:02;;;;;;;10.68;5.75;;;;;;;3.51;92.73;101036.34;5049195;28;19957;-67
2022/11/25 07:28:29;;;;;;;20.33;7.07;;;;;;;3.43;94.36;101036.50;5044021;28;20091;-67
2022/11/25 07:31:04;;;;;;;22.58;7.72;;;;;;;3.73;92.30;101036.84;5036699;28;20045;-66
2022/11/25 07:33:30;;;;;;;15.40;7.07;;;;;;;4.00;89.81;101032.81;5048916;28;20051;-66
2022/11/25 07:36:01;;;;;;;19.10;8.38;;;;;;;3.70;93.44;101037.72;5049209;28;20780;-67
2022/11/25 07:38:28;;;;;;;16.92;7.80;;;;;;;4.15;92.49;101032.50;5048881;28;20055;-67
2022/11/25 07:40:54;;;;;;;24.88;8.05;;;;;;;4.41;92.51;101025.03;5049650;28;20052;-68
2022/11/25 07:43:21;;;;;;;17.65;7.10;;;;;;;4.52;93.31;101030.84;5047233;28;20059;-68
2022/11/25 07:45:47;;;;;;;16.80;7.30;;;;;;;4.51;93.17;101044.69;5051018;28;20045;-67
2022/11/25 07:48:15;;;;;;;17.70;6.60;;;;;;;4.86;92.53;101047.38;5047717;28;20373;-67
2022/11/25 07:50:42;;;;;;;20.95;7.28;;;;;;;4.93;92.07;101044.63;5045641;28;20480;-67
2022/11/25 07:53:08;;;;;;;20.48;8.15;;;;;;;4.38;95.37;101051.06;5049760;28;20203;-66
2022/11/25 07:55:35;;;;;;;26.98;7.03;;;;;;;4.60;95.16;101044.50;5048638;28;20045;-66
2022/11/25 07:58:02;;;;;;;20.95;7.40;;;;;;;4.47;96.66;101043.09;5042166;28;20091;-66
2022/11/25 08:00:28;;;;;;;16.70;7.43;;;;;;;4.43;97.56;101042.28;5024495;28;20071;-66
2022/11/25 08:02:55;;;;;;;18.90;7.03;;;;;;;4.80;96.18;101050.09;5043030;28;20078;-66
2022/11/25 08:05:23;;;;;;;24.25;7.25;;;;;;;4.89;95.23;101046.44;5049964;28;20044;-66
2022/11/25 08:07:51;;;;;;;18.55;7.07;;;;;;;5.10;93.10;101048.50;5042962;28;20055;-66
2022/11/25 08:10:18;;;;;;;24.25;7.68;;;;;;;5.17;92.79;101051.84;5048713;28;20077;-66
2022/11/25 08:12:44;;;;;;;20.02;6.90;;;;;;;5.09;94.38;101052.03;5048322;28;20045;-66
2022/11/25 08:15:11;;;;;;;18.00;7.22;;;;;;;5.34;92.53;101054.88;5046487;28;20201;-66
2022/11/25 08:17:37;;;;;;;21.20;7.00;;;;;;;5.31;92.05;101049.75;5048228;28;20048;-66
2022/11/25 08:20:05;;;;;;;12.05;5.80;;;;;;;5.02;93.22;101047.88;5049038;28;20519;-66
2022/11/25 08:22:33;;;;;;;16.83;6.53;;;;;;;5.13;94.88;101050.19;5046373;28;20061;-67
2022/11/25 08:25:00;;;;;;;20.45;7.15;;;;;;;5.09;94.40;101051.16;5048333;27;20045;-67
2022/11/25 08:27:26;;;;;;;19.98;6.50;;;;;;;4.79;96.09;101053.59;5057042;27;20048;-66
2022/11/25 08:29:52;;;;;;;16.65;5.95;;;;;;;4.83;96.94;101057.84;5045744;27;20050;-65
2022/11/25 08:32:19;;;;;;;16.00;6.70;;;;;;;4.87;96.49;101064.69;5047826;27;20040;-65
2022/11/25 08:34:45;;;;;;;20.08;5.90;;;;;;;5.23;94.81;101062.06;5048539;28;20044;-65
2022/11/25 08:37:12;;;;;;;15.13;6.32;;;;;;;5.39;93.94;101061.63;5038020;28;20044;-65
2022/11/25 08:39:40;;;;;;;15.55;6.00;;;;;;;5.37;94.08;101058.25;5043762;27;20045;-64
2022/11/25 08:42:07;;;;;;;19.60;7.00;;;;;;;4.97;96.06;101062.69;5029692;28;20045;-65
2022/11/25 08:44:34;;;;;;;18.90;6.57;;;;;;;5.16;96.20;101070.91;5039322;27;20495;-64
2022/11/25 08:47:00;;;;;;;19.50;7.10;;;;;;;5.45;95.91;101068.44;5049394;27;20052;-65
2022/11/25 08:49:29;;;;;;;16.27;6.38;;;;;;;5.61;94.12;101064.56;5050021;27;20044;-65
2022/11/25 08:51:55;;;;;;;17.85;7.00;;;;;;;5.50;93.82;101065.72;5042103;27;20140;-65
2022/11/25 08:54:22;;;;;;;17.08;6.22;;;;;;;5.81;93.19;101062.28;5047453;28;20045;-65
2022/11/25 08:56:49;;;;;;;10.77;5.50;;;;;;;5.92;92.66;101058.56;5056587;28;20040;-65
2022/11/25 08:59:16;;;;;;;17.77;6.80;;;;;;;6.38;91.39;101058.13;5048110;27;20044;-65
2022/11/25 09:01:42;;;;;;;17.00;6.43;;;;;;;6.84;88.61;101064.47;5047175;27;20040;-65
2022/11/25 09:04:09;;;;;;;13.52;6.15;;;;;;;7.77;85.96;101071.84;5047967;27;20412;-65
2022/11/25 09:06:35;;;;;;;12.02;6.00;;;;;;;7.99;84.59;101066.69;5037647;27;20048;-65
2022/11/25 09:09:04;;;;;;;13.90;5.85;;;;;;;8.17;81.55;101063.44;5046476;27;20063;-65
2022/11/25 09:11:31;;;;;;;13.98;5.40;;;;;;;7.29;85.34;101064.78;5047976;27;20053;-65
2022/11/25 09:13:59;;;;;;;14.98;6.05;;;;;;;6.94;86.30;101069.44;5037068;28;20047;-65
2022/11/25 09:16:25;;;;;;;14.88;5.80;;;;;;;7.11;86.62;101059.28;5048140;27;20514;-65
2022/11/25 09:18:52;;;;;;;15.32;5.95;;;;;;;6.47;89.31;101060.47;5049188;27;20040;-65
2022/11/25 09:21:18;;;;;;;10.93;4.63;;;;;;;6.94;86.71;101053.78;5027023;28;20041;-65
2022/11/25 09:23:45;;;;;;;13.85;5.47;;;;;;;6.45;88.95;101065.69;5042370;28;20458;-65
2022/11/25 09:26:21;;;;;;;16.65;6.07;;;;;;;5.96;92.75;101066.25;5054516;28;20055;-65
2022/11/25 09:28:48;;;;;;;13.77;5.60;;;;;;;6.55;89.73;101061.06;5055895;28;20044;-65
2022/11/25 09:31:16;;;;;;;13.63;5.80;;;;;;;6.45;91.09;101073.50;5046556;27;20557;-65
2022/11/25 09:33:43;;;;;;;15.35;6.45;;;;;;;6.17;92.19;101073.44;5046674;27;20058;-65
2022/11/25 09:36:11;;;;;;;15.48;5.85;;;;;;;6.36;91.94;101072.03;5052571;27;20048;-65
2022/11/25 09:38:37;;;;;;;13.45;5.97;;;;;;;6.41;91.20;101079.72;5047150;28;20044;-65
2022/11/25 09:41:12;;;;;;;18.13;6.88;;;;;;;6.61;90.97;101081.75;5037703;28;20040;-65
2022/11/25 09:46:54;;;;;;;12.63;4.97;;;;;;;6.46;91.81;101082.19;5029032;28;20055;-65
2022/11/25 09:49:31;;;;;;;12.57;5.60;;;;;;;6.07;93.40;101095.44;5047053;27;20048;-65
2022/11/25 09:52:08;;;;;;;15.15;6.75;;;;;;;6.15;93.08;101088.28;5047303;28;20131;-65
2022/11/25 09:54:37;;;;;;;16.75;6.53;;;;;;;6.54;92.88;101085.44;5047208;28;20045;-64
2022/11/25 09:57:18;;;;;;;17.10;6.38;;;;;;;6.42;91.89;101091.00;5052953;27;20054;-64
2022/11/25 09:59:53;;;;;;;15.00;6.13;;;;;;;7.26;90.00;101077.91;5062383;27;20102;-66
2022/11/25 10:02:26;;;;;;;15.43;6.40;;;;;;;7.01;90.51;101083.97;5047124;27;20551;-65
2022/11/25 10:04:57;;;;;;;;;;;;;;;7.10;90.35;101083.66;5040430;27;20048;-65
2022/11/25 10:07:34;;;;;;;13.02;5.15;;;;;;;6.87;91.12;101076.59;5037119;27;19920;-65
2022/11/25 10:10:03;;;;;;;17.35;5.78;;;;;;;6.71;92.21;101077.94;5043967;28;20420;-65
2022/11/25 10:12:34;;;;;;;18.17;6.45;;;;;;;7.32;89.96;101082.06;5040960;27;20074;-65
2022/11/25 10:15:06;;;;;;;13.88;5.38;;;;;;;7.35;89.01;101077.59;5052339;27;20048;-65
2022/11/25 10:17:39;;;;;;;18.75;6.22;;;;;;;7.62;88.53;101078.44;5051305;27;20048;-65
2022/11/25 10:20:12;;;;;;;17.95;6.03;;;;;;;7.23;90.36;101083.25;5042227;27;20052;-65
2022/11/25 10:22:43;;;;;;;11.63;5.70;;;;;;;7.25;89.47;101084.03;5051636;27;20041;-65
2022/11/25 10:25:14;;;;;;;17.73;6.13;;;;;;;7.33;89.68;101076.81;5041877;27;20485;-65
2022/11/25 10:27:44;;;;;;;18.73;6.40;;;;;;;7.57;89.07;101077.75;5063347;28;20584;-64
2022/11/25 10:30:17;;;;;;;14.63;5.60;;;;;;;7.86;87.26;101084.59;5051095;28;20048;-65
2022/11/25 10:32:50;;;;;;;15.77;5.38;;;;;;;8.26;86.45;101082.25;5041658;28;20044;-65
2022/11/25 10:35:27;;;;;;;10.45;4.70;;;;;;;8.15;85.47;101079.16;5051847;28;20485;-65
2022/11/25 10:37:58;;;;;;;10.30;4.68;;;;;;;7.38;90.47;101078.41;5042006;28;20574;-65
2022/11/25 10:40:24;;;;;;;14.35;5.60;;;;;;;7.57;89.64;101076.91;5049767;28;20054;-65
2022/11/25 10:42:51;;;;;;;13.60;5.72;;;;;;;7.57;89.28;101082.13;5051754;28;20040;-65
2022/11/25 10:45:22;;;;;;;18.58;6.45;;;;;;;7.40;90.25;101080.06;5042280;28;20037;-65
2022/11/25 10:48:06;;;;;;;16.13;5.53;;;;;;;7.59;89.58;101075.94;5058950;28;20045;-66
2022/11/25 10:50:39;;;;;;;18.02;5.78;;;;;;;8.04;86.82;101072.63;5041464;28;20048;-65
2022/11/25 10:53:12;;;;;;;18.92;5.93;;;;;;;7.96;87.36;101079.88;5049806;28;20086;-65
2022/11/25 10:55:39;;;;;;;11.60;5.90;;;;;;;8.19;85.16;101072.94;5043085;28;20049;-65
2022/11/25 10:58:26;;;;;;;11.30;5.10;;;;;;;7.27;90.42;101081.38;5059758;28;20051;-65
2022/11/25 11:01:03;;;;;;;14.52;5.82;;;;;;;7.58;91.56;101075.97;5040718;28;20040;-65
2022/11/25 11:03:31;;;;;;;15.30;6.05;;;;;;;8.24;88.36;101075.38;5049440;28;20049;-65
2022/11/25 11:05:58;;;;;;;17.73;6.75;;;;;;;8.36;87.80;101071.47;5050224;28;20048;-65
2022/11/25 11:08:26;;;;;;;14.32;6.70;;;;;;;8.00;87.90;101071.03;5043012;27;20056;-65
2022/11/25 11:11:15;;;;;;;14.52;6.38;;;;;;;8.06;88.85;101076.88;5063369;27;20047;-65
2022/11/25 11:13:42;;;;;;;12.38;5.82;;;;;;;8.04;88.57;101072.63;5061545;27;20557;-65
2022/11/25 11:16:23;;;;;;;16.55;7.38;;;;;;;8.79;86.14;101069.78;5070674;27;20040;-65
2022/11/25 11:18:52;;;;;;;13.57;5.40;;;;;;;9.25;84.37;101068.81;5047235;27;20056;-65
2022/11/25 11:21:30;;;;;;;11.90;5.38;;;;;;;8.66;85.12;101059.88;5049603;28;20041;-65
2022/11/25 11:23:58;;;;;;;12.70;5.43;;;;;;;8.68;86.09;101065.91;5040150;28;20055;-65
2022/11/25 11:26:27;;;;;;;10.13;5.47;;;;;;;9.18;84.05;101066.50;5058814;28;20071;-65
2022/11/25 11:28:59;;;;;;;11.43;5.57;;;;;;;9.29;84.22;101061.66;5062067;28;20040;-65
2022/11/25 11:31:31;;;;;;;12.23;5.00;;;;;;;9.72;81.37;101069.41;5060793;28;20055;-65
2022/11/25 11:34:10;;;;;;;16.73;5.70;;;;;;;10.06;80.49;101066.19;5056583;28;20054;-65
2022/11/25 11:36:51;;;;;;;14.38;5.13;;;;;;;10.18;80.02;101064.81;5043846;28;20048;-65
2022/11/25 11:39:36;;;;;;;12.65;4.88;;;;;;;10.22;80.20;101058.53;5048520;28;20051;-65